createdAt,value
2018-12-22T00:01:52.538Z,2.60
2018-12-22T00:04:20.764Z,2.40
2018-12-22T00:06:49.054Z,2.73
2018-12-22T00:09:17.264Z,1.80
2018-12-22T00:11:45.484Z,2.60
2018-12-22T00:14:13.690Z,2.80
2018-12-22T00:16:41.954Z,2.47
2018-12-22T00:19:10.291Z,2.20
2018-12-22T00:21:38.436Z,2.80
2018-12-22T00:24:06.696Z,2.10
2018-12-22T00:26:35.051Z,2.10
2018-12-22T00:29:03.730Z,2.20
2018-12-22T00:31:32.056Z,2.33
2018-12-22T00:34:00.367Z,1.97
2018-12-22T00:36:29.583Z,2.27
2018-12-22T00:38:57.813Z,2.40
2018-12-22T00:41:26.045Z,2.00
2018-12-22T00:43:54.306Z,2.47
2018-12-22T00:46:23.474Z,2.47
2018-12-22T00:48:51.663Z,2.40
2018-12-22T00:51:19.798Z,2.10
2018-12-22T00:53:48.122Z,2.00
2018-12-22T00:56:16.475Z,2.40
2018-12-22T00:58:45.546Z,2.53
2018-12-22T01:01:13.802Z,2.60
2018-12-22T01:03:42.163Z,1.83
2018-12-22T01:06:10.989Z,2.53
2018-12-22T01:08:39.282Z,2.10
2018-12-22T01:11:07.582Z,2.50
2018-12-22T01:13:35.754Z,2.23
2018-12-22T01:16:03.860Z,1.40
2018-12-22T01:18:32.028Z,1.53
2018-12-22T01:21:00.247Z,0.97
2018-12-22T01:23:29.412Z,1.20
2018-12-22T01:25:57.583Z,1.20
2018-12-22T01:28:26.265Z,1.00
2018-12-22T01:30:54.470Z,0.90
2018-12-22T01:33:22.592Z,0.70
2018-12-22T01:35:50.725Z,0.87
2018-12-22T01:38:19.012Z,0.70
2018-12-22T01:40:47.345Z,0.80
2018-12-22T01:43:15.493Z,0.97
2018-12-22T01:45:44.237Z,0.83
2018-12-22T01:48:12.511Z,0.70
2018-12-22T01:50:40.694Z,1.00
2018-12-22T01:53:08.904Z,0.50
2018-12-22T01:55:37.395Z,0.80
2018-12-22T01:58:05.526Z,0.60
2018-12-22T02:00:33.870Z,0.63
2018-12-22T02:03:02.229Z,0.77
2018-12-22T02:05:30.573Z,1.00
2018-12-22T02:07:58.756Z,0.87
2018-12-22T02:10:26.948Z,1.37
2018-12-22T02:12:55.073Z,0.50
2018-12-22T02:15:23.261Z,0.80
2018-12-22T02:17:51.554Z,0.70
2018-12-22T02:20:20.448Z,1.03
2018-12-22T02:22:48.579Z,1.40
2018-12-22T02:25:16.703Z,0.83
2018-12-22T02:27:44.828Z,1.00
2018-12-22T02:30:12.947Z,0.90
2018-12-22T02:32:41.056Z,1.87
2018-12-22T02:35:09.267Z,1.20
2018-12-22T02:37:37.390Z,2.00
2018-12-22T02:40:07.177Z,1.47
2018-12-22T02:42:35.306Z,1.80
2018-12-22T02:45:03.702Z,2.40
2018-12-22T02:47:31.854Z,2.77
2018-12-22T02:49:59.981Z,2.77
2018-12-22T02:52:28.108Z,2.43
2018-12-22T02:54:56.317Z,2.07
2018-12-22T02:57:24.437Z,2.73
2018-12-22T02:59:52.653Z,2.40
2018-12-22T03:02:20.779Z,2.80
2018-12-22T03:04:48.890Z,3.30
2018-12-22T03:07:17.161Z,3.20
2018-12-22T03:09:45.339Z,3.30
2018-12-22T03:12:13.551Z,3.63
2018-12-22T03:14:41.765Z,3.30
2018-12-22T03:17:09.982Z,3.93
2018-12-22T03:19:38.114Z,3.87
2018-12-22T03:22:06.312Z,4.20
2018-12-22T03:24:34.513Z,4.00
2018-12-22T03:27:02.726Z,4.13
2018-12-22T03:29:31.017Z,3.80
2018-12-22T03:31:59.150Z,3.80
2018-12-22T03:34:27.362Z,4.70
2018-12-22T03:36:55.504Z,4.80
2018-12-22T03:39:23.900Z,3.97
2018-12-22T03:41:52.049Z,4.60
2018-12-22T03:44:20.177Z,3.80
2018-12-22T03:46:48.331Z,4.00
2018-12-22T03:49:16.478Z,3.40
2018-12-22T03:51:44.672Z,3.50
2018-12-22T03:54:12.795Z,3.57
2018-12-22T03:56:40.921Z,3.90
2018-12-22T03:59:09.046Z,3.20
2018-12-22T04:01:37.188Z,3.00
2018-12-22T04:04:05.566Z,3.60
2018-12-22T04:06:33.700Z,3.13
2018-12-22T04:09:01.821Z,3.50
2018-12-22T04:11:29.951Z,2.87
2018-12-22T04:13:58.073Z,3.40
2018-12-22T04:16:26.196Z,3.50
2018-12-22T04:18:54.387Z,2.70
2018-12-22T04:21:22.596Z,2.90
2018-12-22T04:23:50.774Z,2.63
2018-12-22T04:26:18.978Z,3.30
2018-12-22T04:28:47.265Z,2.87
2018-12-22T04:31:15.408Z,2.50
2018-12-22T04:33:43.538Z,2.60
2018-12-22T04:36:11.739Z,2.90
2018-12-22T04:38:39.852Z,2.93
2018-12-22T04:41:08.059Z,2.87
2018-12-22T04:43:36.182Z,2.93
2018-12-22T04:46:04.469Z,2.93
2018-12-22T04:48:32.669Z,2.60
2018-12-22T04:51:00.829Z,2.97
2018-12-22T04:53:28.971Z,2.03
2018-12-22T04:55:57.172Z,2.07
2018-12-22T04:58:25.293Z,1.60
2018-12-22T05:00:53.437Z,1.60
2018-12-22T05:03:21.575Z,1.43
2018-12-22T05:05:49.752Z,1.43
2018-12-22T05:08:17.948Z,1.97
2018-12-22T05:10:46.058Z,1.50
2018-12-22T05:13:14.187Z,1.43
2018-12-22T05:15:42.411Z,1.20
2018-12-22T05:18:10.689Z,1.40
2018-12-22T05:20:38.889Z,1.13
2018-12-22T05:23:07.074Z,1.20
2018-12-22T05:25:35.206Z,1.20
2018-12-22T05:28:03.392Z,1.30
2018-12-22T05:30:31.515Z,1.10
2018-12-22T05:32:59.740Z,1.27
2018-12-22T05:35:28.069Z,1.57
2018-12-22T05:37:56.256Z,1.27
2018-12-22T05:40:24.386Z,1.40
2018-12-22T05:42:56.093Z,1.20
2018-12-22T05:45:24.229Z,1.20
2018-12-22T05:47:52.352Z,1.50
2018-12-22T05:50:20.474Z,1.30
2018-12-22T05:52:48.679Z,2.43
2018-12-22T05:55:16.873Z,1.67
2018-12-22T05:57:45.150Z,1.60
2018-12-22T06:00:13.281Z,1.80
2018-12-22T06:02:41.477Z,1.20
2018-12-22T06:05:10.809Z,1.77
2018-12-22T06:07:39.018Z,1.50
2018-12-22T06:10:07.283Z,1.43
2018-12-22T06:12:35.457Z,1.07
2018-12-22T06:15:03.888Z,1.37
2018-12-22T06:17:32.078Z,1.30
2018-12-22T06:20:00.294Z,1.20
2018-12-22T06:22:28.509Z,1.10
2018-12-22T06:24:56.626Z,1.00
2018-12-22T06:27:24.907Z,1.43
2018-12-22T06:29:53.024Z,1.60
2018-12-22T06:32:21.142Z,1.27
2018-12-22T06:34:50.028Z,1.20
2018-12-22T06:37:18.489Z,1.47
2018-12-22T06:39:46.713Z,0.93
2018-12-22T06:42:14.925Z,1.33
2018-12-22T06:44:43.046Z,1.20
2018-12-22T06:47:11.186Z,1.30
2018-12-22T06:49:39.302Z,1.20
2018-12-22T06:52:07.503Z,1.20
2018-12-22T06:54:35.764Z,1.23
2018-12-22T06:57:03.909Z,1.40
2018-12-22T06:59:32.145Z,1.50
2018-12-22T07:02:00.614Z,1.40
2018-12-22T07:04:28.769Z,1.73
2018-12-22T07:06:56.988Z,1.20
2018-12-22T07:09:25.190Z,1.70
2018-12-22T07:11:53.378Z,1.60
2018-12-22T07:14:21.505Z,1.70
2018-12-22T07:16:49.643Z,1.60
2018-12-22T07:19:17.782Z,2.40
2018-12-22T07:21:45.930Z,1.30
2018-12-22T07:24:14.049Z,1.30
2018-12-22T07:26:42.165Z,1.70
2018-12-22T07:29:10.302Z,1.00
2018-12-22T07:31:46.805Z,1.03
2018-12-22T07:34:15.759Z,0.90
2018-12-22T07:36:43.878Z,0.87
2018-12-22T07:39:12.210Z,1.07
2018-12-22T07:41:40.341Z,0.97
2018-12-22T07:44:08.476Z,1.00
2018-12-22T07:46:36.630Z,1.23
2018-12-22T07:49:04.914Z,0.83
2018-12-22T07:51:33.038Z,0.77
2018-12-22T07:54:01.533Z,1.00
2018-12-22T07:56:29.664Z,0.97
2018-12-22T07:58:57.789Z,0.97
2018-12-22T08:01:25.920Z,0.70
2018-12-22T08:03:54.037Z,0.70
2018-12-22T08:06:22.231Z,1.20
2018-12-22T08:08:50.370Z,1.13
2018-12-22T08:11:18.557Z,1.37
2018-12-22T08:13:46.673Z,0.83
2018-12-22T08:16:14.874Z,1.10
2018-12-22T08:18:43.014Z,1.10
2018-12-22T08:21:11.137Z,1.00
2018-12-22T08:23:39.261Z,1.03
2018-12-22T08:26:07.466Z,1.00
2018-12-22T08:28:35.586Z,0.87
2018-12-22T08:31:03.980Z,0.80
2018-12-22T08:33:32.229Z,0.80
2018-12-22T08:36:00.463Z,0.93
2018-12-22T08:38:28.619Z,0.83
2018-12-22T08:40:56.822Z,0.80
2018-12-22T08:43:25.005Z,0.80
2018-12-22T08:45:53.136Z,0.60
2018-12-22T08:48:21.415Z,0.70
2018-12-22T08:50:49.621Z,0.83
2018-12-22T08:53:17.897Z,0.90
2018-12-22T08:55:46.186Z,1.07
2018-12-22T08:58:14.318Z,0.93
2018-12-22T09:00:42.597Z,0.80
2018-12-22T09:03:10.733Z,0.90
2018-12-22T09:05:38.858Z,0.97
2018-12-22T09:08:06.974Z,0.70
2018-12-22T09:10:35.108Z,0.63
2018-12-22T09:13:03.220Z,0.60
2018-12-22T09:15:31.351Z,0.60
2018-12-22T09:17:59.483Z,0.93
2018-12-22T09:20:27.753Z,0.80
2018-12-22T09:22:55.870Z,1.00
2018-12-22T09:25:24.226Z,1.07
2018-12-22T09:27:52.410Z,0.70
2018-12-22T09:30:20.609Z,0.60
2018-12-22T09:32:48.810Z,0.90
2018-12-22T09:35:16.930Z,0.70
2018-12-22T09:37:45.075Z,0.60
2018-12-22T09:40:13.194Z,0.90
2018-12-22T09:42:41.330Z,0.93
2018-12-22T09:45:09.599Z,0.50
2018-12-22T09:47:37.807Z,0.60
2018-12-22T09:50:09.466Z,0.90
2018-12-22T09:52:37.741Z,0.60
2018-12-22T09:55:06.041Z,0.60
2018-12-22T09:57:34.196Z,0.60
2018-12-22T10:00:02.491Z,0.57
2018-12-22T10:02:30.601Z,0.60
2018-12-22T10:04:58.728Z,0.63
2018-12-22T10:07:26.873Z,0.67
2018-12-22T10:09:55.079Z,0.40
2018-12-22T10:12:23.396Z,0.50
2018-12-22T10:14:51.545Z,0.70
2018-12-22T10:17:19.781Z,0.50
2018-12-22T10:19:47.914Z,0.57
2018-12-22T10:22:16.381Z,0.50
2018-12-22T10:24:44.541Z,0.73
2018-12-22T10:27:12.820Z,0.60
2018-12-22T10:29:41.182Z,0.57
2018-12-22T10:32:09.401Z,0.70
2018-12-22T10:34:37.569Z,0.80
2018-12-22T10:37:05.805Z,0.60
2018-12-22T10:39:34.035Z,0.60
2018-12-22T10:42:02.251Z,0.77
2018-12-22T10:44:30.357Z,0.57
2018-12-22T10:46:58.517Z,0.70
2018-12-22T10:49:26.837Z,0.70
2018-12-22T10:51:55.046Z,1.00
2018-12-22T10:54:23.279Z,0.70
2018-12-22T10:56:51.397Z,0.70
2018-12-22T10:59:19.520Z,0.80
2018-12-22T11:01:47.645Z,0.90
2018-12-22T11:04:15.773Z,1.10
2018-12-22T11:06:43.902Z,0.80
2018-12-22T11:09:15.596Z,0.80
2018-12-22T11:11:43.805Z,1.10
2018-12-22T11:14:12.063Z,0.63
2018-12-22T11:16:40.361Z,1.27
2018-12-22T11:19:08.550Z,0.67
2018-12-22T11:21:36.672Z,0.70
2018-12-22T11:24:04.955Z,1.17
2018-12-22T11:26:33.085Z,0.90
2018-12-22T11:29:01.226Z,0.60
2018-12-22T11:31:34.933Z,0.70
2018-12-22T11:33:59.922Z,0.77
2018-12-22T11:36:28.121Z,0.93
2018-12-22T11:38:56.261Z,0.90
2018-12-22T11:41:24.397Z,0.80
2018-12-22T11:43:52.518Z,0.50
2018-12-22T11:46:20.640Z,1.20
2018-12-22T11:49:09.321Z,1.13
2018-12-22T11:51:37.430Z,1.23
2018-12-22T11:54:05.665Z,0.90
2018-12-22T11:56:33.781Z,1.10
2018-12-22T11:59:01.915Z,1.10
2018-12-22T12:01:30.112Z,0.97
2018-12-22T12:03:58.242Z,0.60
2018-12-22T12:06:26.368Z,0.90
2018-12-22T12:08:54.590Z,1.10
2018-12-22T12:11:22.709Z,1.10
2018-12-22T12:13:50.861Z,1.00
2018-12-22T12:16:38.413Z,1.03
2018-12-22T12:19:14.024Z,0.80
2018-12-22T12:21:42.210Z,0.60
2018-12-22T12:24:10.414Z,0.60
2018-12-22T12:26:38.731Z,0.70
2018-12-22T12:29:06.935Z,0.90
2018-12-22T12:31:35.174Z,0.97
2018-12-22T12:34:03.380Z,1.10
2018-12-22T12:36:31.614Z,0.70
2018-12-22T12:38:59.795Z,0.97
2018-12-22T12:41:28.105Z,1.20
2018-12-22T12:43:56.223Z,1.07
2018-12-22T12:46:34.439Z,0.77
2018-12-22T12:49:02.890Z,0.80
2018-12-22T12:51:31.010Z,0.80
2018-12-22T12:53:59.138Z,0.67
2018-12-22T12:56:28.310Z,0.73
2018-12-22T12:58:56.445Z,0.80
2018-12-22T13:01:24.576Z,0.77
2018-12-22T13:03:52.722Z,0.80
2018-12-22T13:06:20.851Z,0.90
2018-12-22T13:08:49.040Z,1.00
2018-12-22T13:11:17.183Z,0.90
2018-12-22T13:13:51.922Z,0.80
2018-12-22T13:16:20.059Z,0.80
2018-12-22T13:18:48.266Z,0.80
2018-12-22T13:21:16.547Z,0.70
2018-12-22T13:23:45.542Z,0.80
2018-12-22T13:26:13.733Z,0.90
2018-12-22T13:28:41.866Z,0.80
2018-12-22T13:31:10.454Z,0.90
2018-12-22T13:33:38.591Z,0.90
2018-12-22T13:36:07.774Z,1.20
2018-12-22T13:38:39.187Z,0.90
2018-12-22T13:41:07.295Z,0.80
2018-12-22T13:43:35.511Z,1.00
2018-12-22T13:46:03.777Z,0.80
2018-12-22T13:48:32.223Z,0.70
2018-12-22T13:51:00.789Z,0.80
2018-12-22T13:53:28.973Z,0.80
2018-12-22T13:55:57.101Z,0.70
2018-12-22T13:58:26.436Z,0.90
2018-12-22T14:00:54.635Z,0.90
2018-12-22T14:03:29.901Z,1.07
2018-12-22T14:05:58.169Z,1.30
2018-12-22T14:08:27.030Z,1.07
2018-12-22T14:10:55.218Z,1.00
2018-12-22T14:13:23.563Z,1.30
2018-12-22T14:15:59.533Z,1.30
2018-12-22T14:18:45.532Z,1.20
2018-12-22T14:21:13.894Z,1.03
2018-12-22T14:23:59.318Z,0.83
2018-12-22T14:26:27.546Z,1.60
2018-12-22T14:28:55.658Z,1.33
2018-12-22T14:31:23.838Z,0.97
2018-12-22T14:33:54.690Z,1.70
2018-12-22T14:36:22.800Z,1.53
2018-12-22T14:38:50.921Z,1.57
2018-12-22T14:41:19.141Z,1.67
2018-12-22T14:43:47.330Z,1.40
2018-12-22T14:46:15.475Z,1.60
2018-12-22T14:48:43.705Z,1.57
2018-12-22T14:51:11.932Z,1.33
2018-12-22T14:53:40.117Z,1.30
2018-12-22T14:56:08.433Z,1.57
2018-12-22T14:58:36.802Z,1.50
2018-12-22T15:01:04.947Z,1.93
2018-12-22T15:03:33.216Z,2.77
2018-12-22T15:06:01.506Z,2.97
2018-12-22T15:08:29.766Z,2.20
2018-12-22T15:10:57.946Z,2.00
2018-12-22T15:13:26.149Z,2.60
2018-12-22T15:15:54.274Z,2.70
2018-12-22T15:18:22.542Z,2.80
2018-12-22T15:20:50.741Z,3.27
2018-12-22T15:23:19.050Z,3.57
2018-12-22T15:25:47.247Z,3.27
2018-12-22T15:28:15.584Z,2.43
2018-12-22T15:30:43.730Z,2.90
2018-12-22T15:33:11.906Z,3.43
2018-12-22T15:35:40.093Z,2.70
2018-12-22T15:38:08.222Z,2.83
2018-12-22T15:40:36.402Z,2.57
2018-12-22T15:43:04.613Z,2.47
2018-12-22T15:45:32.802Z,2.40
2018-12-22T15:48:00.973Z,3.50
2018-12-22T15:50:31.348Z,2.40
2018-12-22T15:52:59.526Z,2.90
2018-12-22T15:55:27.741Z,1.80
2018-12-22T15:57:55.915Z,2.07
2018-12-22T16:00:24.041Z,2.53
2018-12-22T16:02:53.382Z,2.80
2018-12-22T16:05:21.962Z,2.50
2018-12-22T16:07:50.243Z,2.67
2018-12-22T16:10:18.353Z,3.00
2018-12-22T16:12:46.487Z,2.70
2018-12-22T16:15:16.752Z,2.90
2018-12-22T16:17:45.079Z,3.37
2018-12-22T16:20:13.391Z,2.87
2018-12-22T16:22:53.953Z,2.77
2018-12-22T16:25:22.180Z,3.20
2018-12-22T16:27:51.189Z,3.10
2018-12-22T16:30:23.041Z,2.70
2018-12-22T16:32:51.158Z,3.30
2018-12-22T16:35:19.510Z,2.50
2018-12-22T16:37:47.609Z,2.50
2018-12-22T16:40:15.781Z,2.53
2018-12-22T16:42:43.920Z,2.63
2018-12-22T16:45:14.042Z,3.13
2018-12-22T16:47:42.419Z,2.60
2018-12-22T16:50:12.691Z,2.93
2018-12-22T16:52:41.002Z,2.50
2018-12-22T16:55:11.243Z,2.40
2018-12-22T16:57:41.852Z,2.53
2018-12-22T17:00:14.731Z,2.20
2018-12-22T17:02:52.612Z,2.43
2018-12-22T17:05:21.098Z,2.40
2018-12-22T17:07:49.262Z,2.60
2018-12-22T17:10:17.369Z,2.47
2018-12-22T17:12:45.912Z,2.30
2018-12-22T17:15:21.906Z,2.33
2018-12-22T17:17:44.564Z,1.90
2018-12-22T17:20:13.660Z,1.40
2018-12-22T17:22:54.071Z,1.87
2018-12-22T17:25:31.675Z,2.00
2018-12-22T17:27:59.799Z,1.97
2018-12-22T17:30:27.977Z,1.43
2018-12-22T17:32:56.085Z,1.40
2018-12-22T17:35:24.214Z,1.80
2018-12-22T17:37:52.765Z,1.40
2018-12-22T17:40:21.109Z,1.80
2018-12-22T17:42:49.212Z,2.20
2018-12-22T17:45:17.336Z,2.07
2018-12-22T17:47:45.441Z,1.73
2018-12-22T17:50:13.630Z,2.00
2018-12-22T17:52:41.763Z,2.80
2018-12-22T17:55:10.841Z,2.00
2018-12-22T17:57:39.175Z,2.00
2018-12-22T18:00:09.498Z,2.30
2018-12-22T18:02:37.664Z,2.30
2018-12-22T18:05:06.172Z,1.80
2018-12-22T18:07:34.349Z,1.90
2018-12-22T18:10:02.613Z,2.63
2018-12-22T18:12:30.705Z,3.60
2018-12-22T18:14:58.866Z,2.30
2018-12-22T18:17:27.095Z,2.70
2018-12-22T18:19:55.208Z,2.20
2018-12-22T18:22:23.311Z,1.93
2018-12-22T18:24:51.507Z,2.60
2018-12-22T18:27:19.717Z,1.87
2018-12-22T18:29:47.841Z,2.13
2018-12-22T18:32:15.951Z,2.23
2018-12-22T18:34:44.088Z,2.67
2018-12-22T18:37:12.225Z,1.80
2018-12-22T18:39:40.381Z,1.63
2018-12-22T18:42:09.494Z,2.40
2018-12-22T18:44:37.634Z,1.73
2018-12-22T18:47:06.089Z,1.40
2018-12-22T18:49:34.241Z,1.80
2018-12-22T18:52:02.426Z,1.40
2018-12-22T18:54:30.557Z,1.67
2018-12-22T18:56:58.680Z,1.80
2018-12-22T18:59:26.989Z,1.30
2018-12-22T19:01:55.436Z,1.10
2018-12-22T19:04:23.569Z,1.10
2018-12-22T19:06:51.789Z,1.90
2018-12-22T19:09:23.633Z,1.70
2018-12-22T19:11:51.759Z,1.83
2018-12-22T19:14:19.872Z,1.87
2018-12-22T19:16:49.340Z,1.83
2018-12-22T19:19:17.443Z,1.97
2018-12-22T19:21:45.956Z,1.90
2018-12-22T19:24:14.045Z,2.27
2018-12-22T19:26:42.177Z,2.40
2018-12-22T19:29:10.315Z,2.23
2018-12-22T19:31:41.813Z,2.07
2018-12-22T19:34:08.633Z,2.27
2018-12-22T19:36:36.745Z,2.10
2018-12-22T19:39:06.597Z,2.17
2018-12-22T19:41:34.927Z,2.20
2018-12-22T19:44:03.274Z,2.60
2018-12-22T19:46:31.494Z,2.47
2018-12-22T19:48:59.605Z,2.43
2018-12-22T19:51:27.731Z,2.20
2018-12-22T19:53:55.913Z,2.23
2018-12-22T19:56:24.021Z,2.07
2018-12-22T19:58:52.136Z,2.57
2018-12-22T20:01:20.401Z,2.27
2018-12-22T20:03:48.534Z,2.10
2018-12-22T20:06:16.797Z,2.60
2018-12-22T20:08:44.901Z,2.13
2018-12-22T20:11:13.099Z,2.20
2018-12-22T20:13:41.188Z,2.07
2018-12-22T20:16:09.388Z,2.23
2018-12-22T20:18:37.634Z,2.50
2018-12-22T20:21:05.739Z,2.20
2018-12-22T20:23:33.825Z,2.53
2018-12-22T20:26:01.949Z,2.63
2018-12-22T20:28:30.061Z,2.47
2018-12-22T20:30:58.174Z,3.20
2018-12-22T20:33:26.266Z,2.90
2018-12-22T20:35:54.438Z,2.23
2018-12-22T20:38:22.616Z,2.63
2018-12-22T20:40:51.185Z,2.40
2018-12-22T20:43:19.317Z,2.33
2018-12-22T20:45:47.397Z,2.60
2018-12-22T20:48:15.498Z,1.90
2018-12-22T20:50:43.681Z,2.60
2018-12-22T20:53:11.786Z,2.50
2018-12-22T20:55:39.949Z,1.80
2018-12-22T20:58:08.140Z,2.53
2018-12-22T21:00:37.270Z,2.23
2018-12-22T21:03:07.821Z,2.57
2018-12-22T21:05:39.680Z,2.40
2018-12-22T21:08:07.909Z,1.93
2018-12-22T21:10:35.994Z,2.17
2018-12-22T21:13:04.246Z,2.53
2018-12-22T21:15:32.341Z,2.43
2018-12-22T21:18:00.433Z,2.47
2018-12-22T21:20:28.739Z,1.67
2018-12-22T21:22:56.829Z,2.20
2018-12-22T21:25:25.005Z,2.17
2018-12-22T21:27:53.173Z,2.00
2018-12-22T21:30:21.356Z,2.10
2018-12-22T21:32:49.521Z,2.13
2018-12-22T21:35:18.000Z,3.00
2018-12-22T21:37:46.150Z,2.40
2018-12-22T21:40:14.342Z,2.77
2018-12-22T21:42:42.453Z,2.73
2018-12-22T21:45:10.618Z,3.30
2018-12-22T21:47:38.821Z,2.57
2018-12-22T21:50:06.926Z,2.60
2018-12-22T21:52:35.103Z,2.93
2018-12-22T21:55:03.367Z,3.93
2018-12-22T21:57:31.573Z,3.07
2018-12-22T21:59:59.773Z,3.00
2018-12-22T22:02:28.069Z,3.13
2018-12-22T22:04:56.221Z,2.40
2018-12-22T22:07:24.373Z,3.33
2018-12-22T22:09:52.460Z,2.53
2018-12-22T22:12:20.585Z,2.27
2018-12-22T22:14:48.711Z,2.90
2018-12-22T22:17:16.875Z,2.40
2018-12-22T22:19:45.012Z,2.80
2018-12-22T22:22:13.226Z,2.53
2018-12-22T22:24:41.328Z,2.60
2018-12-22T22:27:09.550Z,2.50
2018-12-22T22:29:37.696Z,2.60
2018-12-22T22:32:05.843Z,2.47
2018-12-22T22:34:33.998Z,2.10
2018-12-22T22:37:02.076Z,2.70
2018-12-22T22:39:30.203Z,2.33
2018-12-22T22:41:58.371Z,1.87
2018-12-22T22:44:26.541Z,2.50
2018-12-22T22:46:54.694Z,2.40
2018-12-22T22:49:22.773Z,2.20
2018-12-22T22:51:50.854Z,2.63
2018-12-22T22:54:25.314Z,2.40
2018-12-22T22:56:53.404Z,3.60
2018-12-22T22:59:21.505Z,3.00
2018-12-22T23:01:49.649Z,2.70
2018-12-22T23:04:17.873Z,2.40
2018-12-22T23:06:46.028Z,2.37
2018-12-22T23:09:14.180Z,2.43
2018-12-22T23:11:42.372Z,3.00
2018-12-22T23:14:10.472Z,2.40
2018-12-22T23:16:38.634Z,2.30
2018-12-22T23:19:06.729Z,3.43
2018-12-22T23:21:34.885Z,2.97
2018-12-22T23:24:02.971Z,2.67
2018-12-22T23:26:31.120Z,3.03
2018-12-22T23:28:59.206Z,2.97
2018-12-22T23:31:27.393Z,3.37
2018-12-22T23:33:55.545Z,3.10
2018-12-22T23:36:23.681Z,3.63
2018-12-22T23:38:51.846Z,3.43
2018-12-22T23:41:20.029Z,3.27
2018-12-22T23:43:48.249Z,4.70
2018-12-22T23:46:16.425Z,5.10
2018-12-22T23:48:44.497Z,4.60
2018-12-22T23:51:12.706Z,3.27
2018-12-22T23:53:40.862Z,3.10
2018-12-22T23:56:08.957Z,3.10
2018-12-22T23:58:37.044Z,3.40
